createdAt,value
2023-05-20T00:01:27.502Z,102069.59
2023-05-20T00:03:54.122Z,102075.16
2023-05-20T00:06:20.879Z,102072.13
2023-05-20T00:08:47.366Z,102067.88
2023-05-20T00:11:13.842Z,102074.41
2023-05-20T00:13:40.459Z,102081.25
2023-05-20T00:16:07.040Z,102082.13
2023-05-20T00:18:33.620Z,102084.19
2023-05-20T00:21:00.178Z,102083.72
2023-05-20T00:23:26.712Z,102089.25
2023-05-20T00:25:53.197Z,102081.63
2023-05-20T00:28:19.834Z,102078.06
2023-05-20T00:30:46.469Z,102077.25
2023-05-20T00:33:13.094Z,102073.88
2023-05-20T00:35:39.534Z,102074.03
2023-05-20T00:38:05.968Z,102081.06
2023-05-20T00:40:32.499Z,102068.97
2023-05-20T00:42:59.005Z,102076.03
2023-05-20T00:45:25.776Z,102075.84
2023-05-20T00:47:52.389Z,102075.94
2023-05-20T00:50:19.085Z,102075.63
2023-05-20T00:52:48.078Z,102068.16
2023-05-20T00:55:14.532Z,102070.69
2023-05-20T00:57:41.267Z,102074.03
2023-05-20T01:00:09.145Z,102065.63
2023-05-20T01:02:35.675Z,102067.06
2023-05-20T01:05:02.398Z,102077.94
2023-05-20T01:07:28.935Z,102065.22
2023-05-20T01:09:56.188Z,102064.28
2023-05-20T01:12:30.319Z,102059.66
2023-05-20T01:15:01.584Z,102059.56
2023-05-20T01:17:32.989Z,102066.03
2023-05-20T01:20:01.426Z,102059.94
2023-05-20T01:22:28.711Z,102062.47
2023-05-20T01:24:55.862Z,102048.22
2023-05-20T01:27:23.443Z,102041.25
2023-05-20T01:29:51.830Z,102057.63
2023-05-20T01:32:24.814Z,102045.34
2023-05-20T01:34:53.102Z,102049.66
2023-05-20T01:37:22.090Z,102053.06
2023-05-20T01:39:50.638Z,102054.50
2023-05-20T01:42:17.923Z,102043.59
2023-05-20T01:44:44.825Z,102050.13
2023-05-20T01:47:11.306Z,102044.66
2023-05-20T01:49:37.768Z,102038.00
2023-05-20T01:52:04.795Z,102047.09
2023-05-20T01:54:31.355Z,102036.16
2023-05-20T01:56:57.817Z,102045.28
2023-05-20T01:59:24.252Z,102047.16
2023-05-20T02:01:50.826Z,102043.38
2023-05-20T02:04:19.032Z,102035.94
2023-05-20T02:06:45.994Z,102033.44
2023-05-20T02:09:12.679Z,102030.69
2023-05-20T02:11:39.310Z,102023.31
2023-05-20T02:14:06.255Z,102022.50
2023-05-20T02:16:32.828Z,102034.09
2023-05-20T02:18:59.342Z,102035.31
2023-05-20T02:21:26.219Z,102043.13
2023-05-20T02:23:52.666Z,102031.47
2023-05-20T02:26:20.692Z,102043.59
2023-05-20T02:28:50.506Z,102035.63
2023-05-20T02:31:17.727Z,102037.09
2023-05-20T02:33:45.287Z,102038.03
2023-05-20T02:36:11.787Z,102027.41
2023-05-20T02:38:38.238Z,102028.09
2023-05-20T02:41:04.846Z,102029.09
2023-05-20T02:43:32.706Z,102033.84
2023-05-20T02:45:59.191Z,102030.63
2023-05-20T02:48:25.728Z,102029.13
2023-05-20T02:50:53.042Z,102030.00
2023-05-20T02:53:19.734Z,102022.31
2023-05-20T02:55:50.071Z,102024.41
2023-05-20T02:58:17.208Z,102025.34
2023-05-20T03:00:44.080Z,102020.59
2023-05-20T03:03:10.762Z,102020.31
2023-05-20T03:05:38.159Z,102014.00
2023-05-20T03:08:09.648Z,102016.03
2023-05-20T03:10:37.576Z,102020.28
2023-05-20T03:13:08.533Z,102031.06
2023-05-20T03:15:36.100Z,102028.66
2023-05-20T03:18:02.837Z,102017.44
2023-05-20T03:20:30.021Z,102018.56
2023-05-20T03:22:56.895Z,102019.97
2023-05-20T03:25:24.942Z,102027.69
2023-05-20T03:27:51.561Z,102031.03
2023-05-20T03:30:18.043Z,102019.19
2023-05-20T03:32:44.796Z,102030.09
2023-05-20T03:35:11.465Z,102035.56
2023-05-20T03:37:37.976Z,102031.44
2023-05-20T03:40:07.808Z,102031.84
2023-05-20T03:42:34.632Z,102036.69
2023-05-20T03:45:01.190Z,102037.69
2023-05-20T03:47:28.250Z,102032.00
2023-05-20T03:49:54.983Z,102045.09
2023-05-20T03:52:21.544Z,102040.00
2023-05-20T03:54:47.972Z,102046.75
2023-05-20T03:57:14.426Z,102046.50
2023-05-20T03:59:41.023Z,102051.13
2023-05-20T04:02:08.054Z,102045.94
2023-05-20T04:04:34.668Z,102047.25
2023-05-20T04:07:01.199Z,102054.47
2023-05-20T04:09:27.678Z,102057.63
2023-05-20T04:11:54.125Z,102051.69
2023-05-20T04:14:20.620Z,102054.88
2023-05-20T04:16:47.125Z,102054.94
2023-05-20T04:19:13.647Z,102050.88
2023-05-20T04:21:43.141Z,102058.66
2023-05-20T04:24:09.621Z,102054.81
2023-05-20T04:26:36.108Z,102049.50
2023-05-20T04:29:04.175Z,102053.66
2023-05-20T04:31:31.762Z,102052.03
2023-05-20T04:33:58.284Z,102057.72
2023-05-20T04:36:30.337Z,102049.72
2023-05-20T04:38:57.173Z,102053.63
2023-05-20T04:41:24.130Z,102052.41
2023-05-20T04:43:50.754Z,102051.38
2023-05-20T04:46:17.282Z,102049.28
2023-05-20T04:48:43.869Z,102060.78
2023-05-20T04:51:11.025Z,102056.06
2023-05-20T04:53:38.042Z,102056.97
2023-05-20T04:56:05.673Z,102054.56
2023-05-20T04:58:33.400Z,102053.78
2023-05-20T05:01:00.063Z,102055.22
2023-05-20T05:03:26.542Z,102056.53
2023-05-20T05:05:56.618Z,102058.75
2023-05-20T05:08:23.043Z,102065.56
2023-05-20T05:10:49.604Z,102069.66
2023-05-20T05:13:16.159Z,102064.81
2023-05-20T05:15:42.753Z,102068.84
2023-05-20T05:18:09.488Z,102068.22
2023-05-20T05:20:36.286Z,102066.09
2023-05-20T05:23:03.138Z,102074.50
2023-05-20T05:25:29.722Z,102074.69
2023-05-20T05:27:56.350Z,102073.38
2023-05-20T05:30:22.862Z,102066.13
2023-05-20T05:32:49.612Z,102071.13
2023-05-20T05:35:16.453Z,102078.50
2023-05-20T05:37:42.909Z,102070.63
2023-05-20T05:40:09.737Z,102076.06
2023-05-20T05:42:36.259Z,102083.31
2023-05-20T05:45:02.763Z,102074.09
2023-05-20T05:47:32.531Z,102078.09
2023-05-20T05:50:00.066Z,102073.06
2023-05-20T05:52:27.080Z,102071.28
2023-05-20T05:54:54.316Z,102078.56
2023-05-20T05:57:20.809Z,102076.78
2023-05-20T05:59:47.279Z,102070.66
2023-05-20T06:02:14.616Z,102069.03
2023-05-20T06:04:41.513Z,102073.69
2023-05-20T06:07:08.046Z,102078.31
2023-05-20T06:09:34.612Z,102081.88
2023-05-20T06:12:02.392Z,102081.88
2023-05-20T06:14:28.867Z,102075.75
2023-05-20T06:16:55.349Z,102083.94
2023-05-20T06:19:21.969Z,102082.06
2023-05-20T06:21:48.459Z,102082.03
2023-05-20T06:24:15.060Z,102083.47
2023-05-20T06:26:41.594Z,102082.84
2023-05-20T06:29:08.014Z,102082.88
2023-05-20T06:31:34.583Z,102085.75
2023-05-20T06:34:01.157Z,102087.84
2023-05-20T06:36:28.280Z,102088.44
2023-05-20T06:38:55.064Z,102090.63
2023-05-20T06:41:22.359Z,102079.41
2023-05-20T06:43:50.503Z,102083.13
2023-05-20T06:46:18.287Z,102079.13
2023-05-20T06:48:44.804Z,102075.81
2023-05-20T06:51:11.263Z,102069.25
2023-05-20T06:53:37.838Z,102073.19
2023-05-20T06:56:04.501Z,102078.84
2023-05-20T06:58:31.056Z,102075.53
2023-05-20T07:00:57.657Z,102086.31
2023-05-20T07:03:24.162Z,102073.72
2023-05-20T07:05:51.268Z,102068.09
2023-05-20T07:08:17.678Z,102065.47
2023-05-20T07:10:45.053Z,102074.03
2023-05-20T07:13:11.513Z,102065.31
2023-05-20T07:15:38.257Z,102069.41
2023-05-20T07:18:04.792Z,102071.66
2023-05-20T07:20:31.292Z,102070.31
2023-05-20T07:22:57.762Z,102068.66
2023-05-20T07:25:24.294Z,102073.41
2023-05-20T07:27:50.760Z,102076.53
2023-05-20T07:30:17.202Z,102070.16
2023-05-20T07:32:43.716Z,102065.38
2023-05-20T07:35:10.208Z,102072.41
2023-05-20T07:37:36.664Z,102061.78
2023-05-20T07:40:03.653Z,102071.31
2023-05-20T07:42:30.152Z,102080.41
2023-05-20T07:44:56.630Z,102078.09
2023-05-20T07:47:23.084Z,102070.31
2023-05-20T07:49:49.570Z,102076.81
2023-05-20T07:52:15.986Z,102080.31
2023-05-20T07:54:42.462Z,102074.59
2023-05-20T07:57:08.979Z,102064.59
2023-05-20T07:59:35.537Z,102065.94
2023-05-20T08:02:02.069Z,102069.50
2023-05-20T08:04:28.888Z,102064.59
2023-05-20T08:06:55.396Z,102070.31
2023-05-20T08:09:22.513Z,102079.47
2023-05-20T08:11:48.992Z,102073.25
2023-05-20T08:14:15.436Z,102076.31
2023-05-20T08:16:42.568Z,102067.84
2023-05-20T08:19:09.102Z,102079.09
2023-05-20T08:21:35.630Z,102071.88
2023-05-20T08:24:02.219Z,102070.16
2023-05-20T08:26:28.745Z,102063.16
2023-05-20T08:28:55.328Z,102058.44
2023-05-20T08:31:21.925Z,102070.19
2023-05-20T08:33:49.010Z,102070.69
2023-05-20T08:36:16.270Z,102070.97
2023-05-20T08:38:42.867Z,102066.19
2023-05-20T08:41:09.317Z,102062.28
2023-05-20T08:43:37.431Z,102077.44
2023-05-20T08:46:06.428Z,102069.72
2023-05-20T08:48:33.773Z,102069.94
2023-05-20T08:51:03.287Z,102064.38
2023-05-20T08:53:30.464Z,102056.84
2023-05-20T08:56:02.686Z,102058.78
2023-05-20T08:58:30.151Z,102044.38
2023-05-20T09:00:58.661Z,102063.81
2023-05-20T09:03:25.723Z,102068.94
2023-05-20T09:05:53.578Z,102069.50
2023-05-20T09:08:24.129Z,102070.75
2023-05-20T09:10:52.581Z,102066.47
2023-05-20T09:13:19.028Z,102066.81
2023-05-20T09:15:45.473Z,102076.25
2023-05-20T09:18:12.211Z,102067.22
2023-05-20T09:20:38.872Z,102070.91
2023-05-20T09:23:07.856Z,102067.72
2023-05-20T09:25:35.549Z,102068.03
2023-05-20T09:28:04.388Z,102065.16
2023-05-20T09:30:32.766Z,102055.47
2023-05-20T09:33:01.024Z,102052.16
2023-05-20T09:35:28.270Z,102056.91
2023-05-20T09:37:58.598Z,102054.13
2023-05-20T09:40:27.879Z,102045.88
2023-05-20T09:42:57.141Z,102054.34
2023-05-20T09:45:24.549Z,102060.09
2023-05-20T09:47:53.031Z,102059.88
2023-05-20T09:50:23.329Z,102058.16
2023-05-20T09:52:51.321Z,102050.31
2023-05-20T09:55:20.116Z,102060.56
2023-05-20T09:57:47.310Z,102068.38
2023-05-20T10:00:17.394Z,102065.97
2023-05-20T10:02:46.104Z,102060.56
2023-05-20T10:05:18.643Z,102058.38
2023-05-20T10:07:53.656Z,102053.66
2023-05-20T10:10:26.332Z,102054.69
2023-05-20T10:13:07.761Z,102047.91
2023-05-20T10:16:13.055Z,102048.59
2023-05-20T10:18:57.815Z,102050.53
2023-05-20T10:21:25.154Z,102055.00
2023-05-20T10:23:52.371Z,102051.31
2023-05-20T10:26:19.430Z,102054.66
2023-05-20T10:28:47.336Z,102052.25
2023-05-20T10:31:23.974Z,102036.53
2023-05-20T10:33:53.387Z,102056.72
2023-05-20T10:36:26.201Z,102051.34
2023-05-20T10:38:54.665Z,102048.00
2023-05-20T10:41:26.678Z,102030.81
2023-05-20T10:44:03.509Z,102042.94
2023-05-20T10:46:38.594Z,102037.19
2023-05-20T10:49:22.463Z,102024.25
2023-05-20T10:51:51.458Z,102032.19
2023-05-20T10:54:18.045Z,102029.75
2023-05-20T10:56:53.372Z,102031.47
2023-05-20T10:59:21.634Z,102034.44
2023-05-20T11:01:49.310Z,102019.41
2023-05-20T11:04:17.448Z,102032.38
2023-05-20T11:06:53.484Z,102037.75
2023-05-20T11:09:19.968Z,102018.22
2023-05-20T11:11:46.697Z,102021.13
2023-05-20T11:14:14.730Z,102031.34
2023-05-20T11:16:42.398Z,102012.91
2023-05-20T11:19:14.495Z,102025.72
2023-05-20T11:21:44.737Z,102017.84
2023-05-20T11:24:11.276Z,102014.28
2023-05-20T11:26:38.474Z,102023.41
2023-05-20T11:29:05.050Z,102021.16
2023-05-20T11:31:32.333Z,102018.38
2023-05-20T11:34:02.169Z,102014.78
2023-05-20T11:36:28.890Z,102003.47
2023-05-20T11:38:58.501Z,102019.03
2023-05-20T11:41:25.623Z,102019.66
2023-05-20T11:43:59.599Z,102009.13
2023-05-20T11:46:27.128Z,101991.81
2023-05-20T11:48:57.663Z,101989.03
2023-05-20T11:51:28.967Z,101991.41
2023-05-20T11:54:06.631Z,101987.84
2023-05-20T11:56:37.732Z,101995.63
2023-05-20T11:59:09.164Z,101978.94
2023-05-20T12:01:37.759Z,101982.31
2023-05-20T12:04:05.592Z,101975.50
2023-05-20T12:06:32.422Z,101990.44
2023-05-20T12:09:06.640Z,101980.81
2023-05-20T12:11:35.484Z,101981.44
2023-05-20T12:14:05.071Z,101978.06
2023-05-20T12:16:33.327Z,101980.22
2023-05-20T12:19:00.540Z,101977.69
2023-05-20T12:21:28.942Z,101959.38
2023-05-20T12:23:57.984Z,101955.84
2023-05-20T12:26:26.845Z,101954.59
2023-05-20T12:28:54.605Z,101959.13
2023-05-20T12:31:21.402Z,101940.75
2023-05-20T12:33:48.283Z,101958.16
2023-05-20T12:36:15.395Z,101957.50
2023-05-20T12:38:42.136Z,101954.97
2023-05-20T12:41:08.919Z,101964.53
2023-05-20T12:43:37.497Z,101948.53
2023-05-20T12:46:04.897Z,101949.69
2023-05-20T12:48:31.392Z,101945.75
2023-05-20T12:50:57.989Z,101936.41
2023-05-20T12:53:25.309Z,101929.00
2023-05-20T12:55:51.829Z,101928.19
2023-05-20T12:58:18.309Z,101920.34
2023-05-20T13:00:44.962Z,101921.06
2023-05-20T13:03:11.862Z,101921.53
2023-05-20T13:05:38.472Z,101922.50
2023-05-20T13:08:05.350Z,101905.31
2023-05-20T13:10:33.276Z,101898.25
2023-05-20T13:13:00.063Z,101906.19
2023-05-20T13:15:26.630Z,101904.59
2023-05-20T13:17:54.513Z,101897.56
2023-05-20T13:20:21.489Z,101886.22
2023-05-20T13:22:50.086Z,101895.41
2023-05-20T13:25:16.893Z,101890.22
2023-05-20T13:27:43.808Z,101881.94
2023-05-20T13:30:11.138Z,101883.59
2023-05-20T13:32:37.780Z,101877.34
2023-05-20T13:35:04.918Z,101881.56
2023-05-20T13:37:31.533Z,101877.16
2023-05-20T13:39:58.019Z,101860.50
2023-05-20T13:42:24.492Z,101874.09
2023-05-20T13:44:51.209Z,101859.78
2023-05-20T13:47:17.775Z,101869.97
2023-05-20T13:49:44.241Z,101861.91
2023-05-20T13:52:10.914Z,101867.56
2023-05-20T13:54:37.540Z,101870.56
2023-05-20T13:57:07.691Z,101866.13
2023-05-20T13:59:35.282Z,101865.47
2023-05-20T14:02:02.555Z,101861.47
2023-05-20T14:04:31.065Z,101857.88
2023-05-20T14:06:59.158Z,101857.25
2023-05-20T14:09:25.808Z,101854.06
2023-05-20T14:11:52.234Z,101853.44
2023-05-20T14:14:18.717Z,101853.63
2023-05-20T14:16:45.257Z,101843.97
2023-05-20T14:19:11.747Z,101846.38
2023-05-20T14:21:38.349Z,101847.94
2023-05-20T14:24:05.185Z,101838.59
2023-05-20T14:26:33.360Z,101834.88
2023-05-20T14:29:00.692Z,101836.28
2023-05-20T14:31:27.599Z,101839.56
2023-05-20T14:33:54.074Z,101820.78
2023-05-20T14:36:20.662Z,101825.97
2023-05-20T14:38:47.626Z,101844.59
2023-05-20T14:41:15.878Z,101828.44
2023-05-20T14:43:42.505Z,101823.84
2023-05-20T14:46:10.251Z,101822.94
2023-05-20T14:48:36.926Z,101808.16
2023-05-20T14:51:03.450Z,101817.47
2023-05-20T14:53:29.873Z,101808.75
2023-05-20T14:55:56.426Z,101819.69
2023-05-20T14:58:22.993Z,101818.88
2023-05-20T15:00:49.457Z,101804.22
2023-05-20T15:03:16.169Z,101812.03
2023-05-20T15:05:42.844Z,101808.41
2023-05-20T15:08:09.376Z,101804.69
2023-05-20T15:10:36.142Z,101797.47
2023-05-20T15:13:02.832Z,101790.28
2023-05-20T15:15:29.319Z,101783.56
2023-05-20T15:17:56.484Z,101772.94
2023-05-20T15:20:23.170Z,101791.94
2023-05-20T15:22:49.651Z,101789.81
2023-05-20T15:25:16.345Z,101787.56
2023-05-20T15:27:43.104Z,101788.50
2023-05-20T15:30:10.289Z,101790.13
2023-05-20T15:32:36.951Z,101784.03
2023-05-20T15:35:04.413Z,101780.34
2023-05-20T15:37:31.167Z,101776.94
2023-05-20T15:39:57.728Z,101757.19
2023-05-20T15:42:25.005Z,101757.94
2023-05-20T15:44:51.496Z,101761.63
2023-05-20T15:47:18.059Z,101762.78
2023-05-20T15:49:44.665Z,101767.25
2023-05-20T15:52:11.370Z,101760.34
2023-05-20T15:54:37.853Z,101754.84
2023-05-20T15:57:05.066Z,101751.97
2023-05-20T15:59:31.725Z,101741.41
2023-05-20T16:01:58.409Z,101745.19
2023-05-20T16:04:25.205Z,101752.03
2023-05-20T16:06:51.776Z,101746.84
2023-05-20T16:09:18.397Z,101743.91
2023-05-20T16:11:44.871Z,101743.31
2023-05-20T16:14:11.445Z,101732.09
2023-05-20T16:16:38.264Z,101748.81
2023-05-20T16:19:04.964Z,101733.63
2023-05-20T16:21:31.646Z,101738.59
2023-05-20T16:23:58.506Z,101730.91
2023-05-20T16:26:25.051Z,101732.66
2023-05-20T16:28:51.502Z,101739.91
2023-05-20T16:31:18.053Z,101723.13
2023-05-20T16:33:44.686Z,101733.19
2023-05-20T16:36:12.017Z,101741.94
2023-05-20T16:38:39.216Z,101733.31
2023-05-20T16:41:05.865Z,101719.41
2023-05-20T16:43:32.456Z,101723.97
2023-05-20T16:45:59.107Z,101726.75
2023-05-20T16:48:26.719Z,101718.97
2023-05-20T16:50:53.213Z,101722.59
2023-05-20T16:53:19.886Z,101724.25
2023-05-20T16:55:47.115Z,101720.31
2023-05-20T16:58:13.757Z,101722.03
2023-05-20T17:00:40.905Z,101707.81
2023-05-20T17:03:07.474Z,101705.34
2023-05-20T17:05:34.116Z,101705.13
2023-05-20T17:08:00.885Z,101710.16
2023-05-20T17:10:28.803Z,101706.22
2023-05-20T17:12:55.421Z,101704.50
2023-05-20T17:15:23.727Z,101711.75
2023-05-20T17:17:50.644Z,101686.78
2023-05-20T17:20:17.430Z,101690.34
2023-05-20T17:22:44.140Z,101686.53
2023-05-20T17:25:10.967Z,101695.16
2023-05-20T17:27:37.694Z,101688.06
2023-05-20T17:30:04.537Z,101677.94
2023-05-20T17:32:31.233Z,101685.88
2023-05-20T17:34:57.769Z,101682.28
2023-05-20T17:37:24.272Z,101675.09
2023-05-20T17:39:50.771Z,101671.22
2023-05-20T17:42:17.362Z,101669.66
2023-05-20T17:44:43.861Z,101661.69
2023-05-20T17:47:10.415Z,101669.03
2023-05-20T17:49:36.938Z,101651.88
2023-05-20T17:52:03.474Z,101667.50
2023-05-20T17:54:29.955Z,101656.31
2023-05-20T17:56:56.452Z,101657.44
2023-05-20T17:59:22.905Z,101657.34
2023-05-20T18:01:49.523Z,101656.53
2023-05-20T18:04:16.700Z,101656.88
2023-05-20T18:06:43.294Z,101657.00
2023-05-20T18:09:09.876Z,101657.50
2023-05-20T18:11:36.464Z,101657.78
2023-05-20T18:14:02.970Z,101659.44
2023-05-20T18:16:30.641Z,101649.91
2023-05-20T18:18:58.023Z,101654.66
2023-05-20T18:21:24.870Z,101658.25
2023-05-20T18:23:51.826Z,101654.81
2023-05-20T18:26:18.456Z,101655.59
2023-05-20T18:28:45.031Z,101661.03
2023-05-20T18:31:11.941Z,101663.16
2023-05-20T18:33:38.774Z,101656.94
2023-05-20T18:36:06.004Z,101662.00
2023-05-20T18:38:32.907Z,101657.56
2023-05-20T18:40:59.726Z,101658.03
2023-05-20T18:43:26.513Z,101655.22
2023-05-20T18:45:53.231Z,101651.50
2023-05-20T18:48:26.612Z,101656.00
2023-05-20T18:50:54.626Z,101664.84
2023-05-20T18:53:21.145Z,101657.16
2023-05-20T18:55:48.332Z,101649.31
2023-05-20T18:58:15.058Z,101652.03
2023-05-20T19:00:42.055Z,101649.06
2023-05-20T19:03:08.634Z,101646.66
2023-05-20T19:05:35.608Z,101646.06
2023-05-20T19:08:03.034Z,101635.69
2023-05-20T19:10:29.617Z,101635.06
2023-05-20T19:12:56.607Z,101636.72
2023-05-20T19:15:23.171Z,101645.41
2023-05-20T19:17:49.813Z,101643.44
2023-05-20T19:20:16.434Z,101648.41
2023-05-20T19:22:42.948Z,101633.84
2023-05-20T19:25:09.696Z,101648.03
2023-05-20T19:27:36.327Z,101652.09
2023-05-20T19:30:03.818Z,101657.63
2023-05-20T19:32:30.437Z,101658.00
2023-05-20T19:34:57.004Z,101654.22
2023-05-20T19:37:24.280Z,101653.63
2023-05-20T19:39:50.830Z,101655.44
2023-05-20T19:42:17.350Z,101656.50
2023-05-20T19:44:46.387Z,101646.63
2023-05-20T19:47:13.001Z,101660.66
2023-05-20T19:49:39.581Z,101657.31
2023-05-20T19:52:06.884Z,101653.03
2023-05-20T19:54:33.624Z,101662.25
2023-05-20T19:57:00.147Z,101656.50
2023-05-20T19:59:26.859Z,101646.94
2023-05-20T20:01:53.400Z,101648.94
2023-05-20T20:04:20.132Z,101651.47
2023-05-20T20:06:47.954Z,101655.56
2023-05-20T20:09:14.512Z,101653.53
2023-05-20T20:11:41.011Z,101650.16
2023-05-20T20:14:07.485Z,101651.06
2023-05-20T20:16:34.627Z,101646.63
2023-05-20T20:19:01.394Z,101648.38
2023-05-20T20:21:27.890Z,101642.69
2023-05-20T20:23:54.376Z,101635.38
2023-05-20T20:26:25.672Z,101643.00
2023-05-20T20:28:52.257Z,101637.59
2023-05-20T20:31:18.761Z,101647.38
2023-05-20T20:33:45.323Z,101639.78
2023-05-20T20:36:11.857Z,101653.63
2023-05-20T20:38:38.575Z,101643.78
2023-05-20T20:41:05.103Z,101638.00
2023-05-20T20:43:34.558Z,101633.53
2023-05-20T20:46:01.022Z,101643.72
2023-05-20T20:48:27.635Z,101642.28
2023-05-20T20:50:54.836Z,101635.06
2023-05-20T20:53:21.654Z,101643.28
2023-05-20T20:55:48.425Z,101640.94
2023-05-20T20:58:15.514Z,101635.44
2023-05-20T21:00:44.826Z,101639.88
2023-05-20T21:03:12.633Z,101637.22
2023-05-20T21:05:39.170Z,101637.22
2023-05-20T21:08:08.210Z,101625.66
2023-05-20T21:10:36.921Z,101630.09
2023-05-20T21:13:03.709Z,101619.13
2023-05-20T21:15:30.398Z,101621.88
2023-05-20T21:17:57.021Z,101616.09
2023-05-20T21:20:23.734Z,101618.97
2023-05-20T21:22:50.167Z,101615.69
2023-05-20T21:25:16.936Z,101603.75
2023-05-20T21:27:43.438Z,101609.19
2023-05-20T21:30:11.179Z,101606.31
2023-05-20T21:32:38.361Z,101602.47
2023-05-20T21:35:05.316Z,101604.63
2023-05-20T21:37:31.840Z,101603.34
2023-05-20T21:39:58.309Z,101600.63
2023-05-20T21:42:24.841Z,101595.94
2023-05-20T21:44:51.479Z,101592.94
2023-05-20T21:47:19.609Z,101585.66
2023-05-20T21:49:47.902Z,101601.59
2023-05-20T21:52:14.444Z,101596.53
2023-05-20T21:54:41.489Z,101591.38
2023-05-20T21:57:08.152Z,101593.50
2023-05-20T21:59:34.672Z,101590.59
2023-05-20T22:02:01.345Z,101588.66
2023-05-20T22:04:28.576Z,101585.66
2023-05-20T22:06:56.123Z,101577.31
2023-05-20T22:09:22.656Z,101584.00
2023-05-20T22:11:49.667Z,101587.84
2023-05-20T22:14:16.868Z,101576.69
2023-05-20T22:16:46.537Z,101577.16
2023-05-20T22:19:17.164Z,101583.97
2023-05-20T22:21:50.239Z,101571.53
2023-05-20T22:24:18.014Z,101567.94
2023-05-20T22:26:44.731Z,101583.66
2023-05-20T22:29:11.251Z,101562.13
2023-05-20T22:31:38.080Z,101570.44
2023-05-20T22:34:05.429Z,101566.03
2023-05-20T22:36:34.136Z,101572.72
2023-05-20T22:39:04.696Z,101567.50
2023-05-20T22:41:31.280Z,101559.16
2023-05-20T22:43:57.901Z,101562.94
2023-05-20T22:46:25.130Z,101548.19
2023-05-20T22:48:55.444Z,101559.28
2023-05-20T22:51:22.700Z,101548.63
2023-05-20T22:53:49.326Z,101540.25
2023-05-20T22:56:16.043Z,101550.00
2023-05-20T22:58:42.597Z,101541.34
2023-05-20T23:01:10.358Z,101543.84
2023-05-20T23:03:37.691Z,101540.75
2023-05-20T23:06:04.371Z,101543.44
2023-05-20T23:08:30.899Z,101542.34
2023-05-20T23:10:57.365Z,101540.25
2023-05-20T23:13:23.787Z,101535.81
2023-05-20T23:15:50.411Z,101532.00
2023-05-20T23:18:17.919Z,101536.63
2023-05-20T23:20:44.431Z,101525.34
2023-05-20T23:23:11.705Z,101519.78
2023-05-20T23:25:39.019Z,101519.06
2023-05-20T23:28:05.938Z,101512.56
2023-05-20T23:30:32.494Z,101510.00
2023-05-20T23:32:59.437Z,101513.50
2023-05-20T23:35:26.302Z,101505.47
2023-05-20T23:37:52.747Z,101504.84
2023-05-20T23:40:19.299Z,101499.75
2023-05-20T23:42:45.853Z,101500.63
2023-05-20T23:45:13.078Z,101501.59
2023-05-20T23:47:39.717Z,101500.91
2023-05-20T23:50:06.542Z,101495.75
2023-05-20T23:52:33.060Z,101500.91
2023-05-20T23:55:00.150Z,101490.56
2023-05-20T23:57:26.743Z,101483.63
2023-05-20T23:59:53.199Z,101483.00
